Time;durP1;ratioP1;P1;durP2;ratioP2;P2;SDS_P1;SDS_P2;PMS_P1;PMS_P2;Temp;Humidity;BMP_temperature;BMP_pressure;BME280_temperature;BME280_humidity;BME280_pressure;Samples;Min_cycle;Max_cycle;Signal;HPM_P1;HPM_P2
2020/12/25 00:01:23;;;;;;;4.43;3.08;;;0.30;98.00;;;;;;5032682;28;20029;-71
2020/12/25 00:03:48;;;;;;;4.43;3.15;;;0.30;98.00;;;;;;5035109;28;20325;-70
2020/12/25 00:06:23;;;;;;;4.70;3.35;;;0.30;98.00;;;;;;5034619;28;20079;-71
2020/12/25 00:08:49;;;;;;;4.32;3.20;;;0.30;98.00;;;;;;5033879;28;20029;-72
2020/12/25 00:11:14;;;;;;;3.72;2.58;;;0.30;98.00;;;;;;5021023;28;20448;-72
2020/12/25 00:13:40;;;;;;;3.72;2.60;;;0.30;98.00;;;;;;5034448;28;20441;-71
2020/12/25 00:16:06;;;;;;;4.43;3.00;;;0.30;98.00;;;;;;5035059;28;20075;-71
2020/12/25 00:18:31;;;;;;;4.38;3.08;;;0.30;98.00;;;;;;5034891;28;20436;-71
2020/12/25 00:21:00;;;;;;;4.00;2.83;;;0.30;98.00;;;;;;5032829;28;20044;-69
2020/12/25 00:23:27;;;;;;;3.75;2.50;;;0.30;98.00;;;;;;5025841;28;20305;-69
2020/12/25 00:25:52;;;;;;;4.22;2.92;;;0.30;98.00;;;;;;5032932;28;20079;-69
2020/12/25 00:28:18;;;;;;;4.53;3.10;;;0.30;98.00;;;;;;5033956;28;20014;-69
2020/12/25 00:30:44;;;;;;;5.35;2.65;;;0.30;98.00;;;;;;5033801;28;20103;-70
2020/12/25 00:33:11;;;;;;;3.95;2.72;;;0.30;98.00;;;;;;5034732;28;20033;-71
2020/12/25 00:35:41;;;;;;;8.82;3.55;;;0.30;98.00;;;;;;5034215;28;20041;-70
2020/12/25 00:38:06;;;;;;;4.63;3.17;;;0.30;98.00;;;;;;5033314;28;20025;-71
2020/12/25 00:40:32;;;;;;;4.65;3.13;;;0.30;98.00;;;;;;5030006;28;20037;-72
2020/12/25 00:42:58;;;;;;;4.55;3.22;;;0.30;98.00;;;;;;5033465;28;20029;-72
2020/12/25 00:45:23;;;;;;;4.45;2.42;;;0.30;98.00;;;;;;5033803;28;20022;-70
2020/12/25 00:47:49;;;;;;;3.55;2.50;;;0.30;98.00;;;;;;5027494;28;20030;-70
2020/12/25 00:50:14;;;;;;;3.50;2.50;;;0.30;98.00;;;;;;5032185;28;20061;-71
2020/12/25 00:52:40;;;;;;;4.85;3.17;;;0.30;98.00;;;;;;5033291;28;20095;-70
2020/12/25 00:55:06;;;;;;;4.40;3.13;;;0.30;98.00;;;;;;5031722;28;20322;-70
2020/12/25 00:57:31;;;;;;;4.43;3.25;;;0.30;98.00;;;;;;5029105;28;20029;-71
2020/12/25 00:59:57;;;;;;;4.07;3.05;;;0.30;98.00;;;;;;5038146;28;20026;-72
2020/12/25 01:02:28;;;;;;;5.07;2.95;;;0.30;98.00;;;;;;5030248;28;20072;-71
2020/12/25 01:04:54;;;;;;;6.43;3.80;;;0.30;98.00;;;;;;5033640;28;20072;-72
2020/12/25 01:07:19;;;;;;;4.50;3.20;;;0.30;98.00;;;;;;5043337;28;20359;-72
2020/12/25 01:09:45;;;;;;;4.07;2.97;;;0.30;98.00;;;;;;5044205;28;20032;-71
2020/12/25 01:12:11;;;;;;;4.95;3.35;;;0.30;98.00;;;;;;5037109;28;20026;-72
2020/12/25 01:14:36;;;;;;;5.15;3.83;;;0.30;98.00;;;;;;5033712;28;20038;-72
2020/12/25 01:17:05;;;;;;;4.30;3.25;;;0.30;98.00;;;;;;5034657;28;20116;-72
2020/12/25 01:19:30;;;;;;;3.95;2.90;;;0.20;98.00;;;;;;5026986;28;20108;-71
2020/12/25 01:21:56;;;;;;;6.60;4.00;;;0.20;98.00;;;;;;5029315;28;20112;-71
2020/12/25 01:24:25;;;;;;;4.50;3.10;;;0.20;98.00;;;;;;5034846;28;20021;-72
2020/12/25 01:26:50;;;;;;;4.65;3.35;;;0.30;98.00;;;;;;5029720;28;20026;-72
2020/12/25 01:29:18;;;;;;;4.55;3.10;;;0.30;98.00;;;;;;5024239;28;20301;-72
2020/12/25 01:31:43;;;;;;;5.45;4.00;;;0.30;98.00;;;;;;5037344;28;20034;-72
2020/12/25 01:34:09;;;;;;;4.70;3.40;;;0.30;98.00;;;;;;5022277;28;20088;-72
2020/12/25 01:36:35;;;;;;;5.13;3.72;;;0.30;98.00;;;;;;5034006;28;20028;-72
2020/12/25 01:39:00;;;;;;;5.68;3.80;;;0.30;98.00;;;;;;5026070;28;20295;-72
2020/12/25 01:41:28;;;;;;;5.90;4.07;;;0.20;98.00;;;;;;5026895;28;20034;-72
2020/12/25 01:43:54;;;;;;;5.40;3.78;;;0.30;98.00;;;;;;5033546;28;20033;-72
2020/12/25 01:46:19;;;;;;;5.32;3.67;;;0.30;98.00;;;;;;5036989;28;20022;-72
2020/12/25 01:48:45;;;;;;;5.13;3.72;;;0.30;98.00;;;;;;5036300;28;20029;-72
2020/12/25 01:51:13;;;;;;;6.75;4.30;;;0.30;98.00;;;;;;5036460;28;20148;-72
2020/12/25 01:53:40;;;;;;;6.38;4.60;;;0.30;98.00;;;;;;5035901;28;20425;-72
2020/12/25 01:56:05;;;;;;;6.47;4.72;;;0.30;98.00;;;;;;5035255;28;20309;-72
2020/12/25 01:58:32;;;;;;;6.20;4.70;;;0.30;98.00;;;;;;5043615;28;20026;-72
2020/12/25 02:00:58;;;;;;;7.25;4.25;;;0.30;98.00;;;;;;5033091;28;20057;-71
2020/12/25 02:03:24;;;;;;;7.10;5.20;;;0.30;98.00;;;;;;5036574;28;20045;-71
2020/12/25 02:05:50;;;;;;;6.50;4.70;;;0.30;98.00;;;;;;5036536;28;20025;-71
2020/12/25 02:08:15;;;;;;;5.53;3.95;;;0.30;98.00;;;;;;5036095;28;20060;-72
2020/12/25 02:10:42;;;;;;;4.75;3.58;;;0.30;98.00;;;;;;5033886;28;20061;-72
2020/12/25 02:13:09;;;;;;;5.63;3.83;;;0.40;98.00;;;;;;5037184;28;21483;-72
2020/12/25 02:15:37;;;;;;;5.35;3.53;;;0.40;98.00;;;;;;5048920;28;20438;-72
2020/12/25 02:18:04;;;;;;;3.75;2.78;;;0.40;98.00;;;;;;5035986;28;20029;-71
2020/12/25 02:20:29;;;;;;;4.47;2.50;;;0.30;98.00;;;;;;5036368;28;20040;-72
2020/12/25 02:22:55;;;;;;;3.85;2.55;;;0.30;98.00;;;;;;5036724;28;20034;-71
2020/12/25 02:25:21;;;;;;;3.60;2.40;;;0.40;98.00;;;;;;5034246;28;20079;-72
2020/12/25 02:27:47;;;;;;;3.67;2.38;;;0.40;98.00;;;;;;5036522;28;20432;-71
2020/12/25 02:30:14;;;;;;;4.13;2.45;;;0.40;98.00;;;;;;5036653;28;20314;-71
2020/12/25 02:32:40;;;;;;;4.60;2.92;;;0.40;98.00;;;;;;5034263;28;20029;-70
2020/12/25 02:35:09;;;;;;;3.33;2.17;;;0.40;98.00;;;;;;5036644;28;20055;-70
2020/12/25 02:37:37;;;;;;;2.70;1.77;;;0.40;98.00;;;;;;5035830;28;20049;-70
2020/12/25 02:40:04;;;;;;;3.42;2.00;;;0.40;98.00;;;;;;5034395;28;20031;-72
2020/12/25 02:42:29;;;;;;;13.23;5.45;;;0.30;98.00;;;;;;5036114;28;20079;-71
2020/12/25 02:44:55;;;;;;;2.83;1.77;;;0.30;98.00;;;;;;5036293;28;20037;-72
2020/12/25 02:47:20;;;;;;;2.60;1.77;;;0.40;98.00;;;;;;5036242;28;20081;-72
2020/12/25 02:49:46;;;;;;;2.38;1.60;;;0.40;98.00;;;;;;5034922;28;20022;-72
2020/12/25 02:52:12;;;;;;;3.97;1.80;;;0.40;98.00;;;;;;5034341;28;20052;-71
2020/12/25 02:54:40;;;;;;;4.47;2.63;;;0.40;98.00;;;;;;5035200;28;20074;-72
2020/12/25 02:57:06;;;;;;;2.25;1.40;;;0.40;98.00;;;;;;5033761;28;20029;-72
2020/12/25 02:59:33;;;;;;;2.55;1.52;;;0.40;98.00;;;;;;5036264;28;20025;-72
2020/12/25 03:01:59;;;;;;;2.10;1.40;;;0.40;98.00;;;;;;5035597;28;20069;-72
2020/12/25 03:04:27;;;;;;;2.30;1.48;;;0.40;98.00;;;;;;5030781;28;20491;-72
2020/12/25 03:06:53;;;;;;;2.92;1.60;;;0.40;98.00;;;;;;5031451;28;20419;-72
2020/12/25 03:09:18;;;;;;;3.00;1.67;;;0.40;98.00;;;;;;5030275;28;20087;-72
2020/12/25 03:11:44;;;;;;;2.50;1.70;;;0.40;98.00;;;;;;5029624;28;20029;-72
2020/12/25 03:14:10;;;;;;;2.90;1.60;;;0.40;98.00;;;;;;5030382;28;20040;-72
2020/12/25 03:16:35;;;;;;;3.42;1.70;;;0.40;98.00;;;;;;5030541;28;20029;-72
2020/12/25 03:19:01;;;;;;;2.72;1.70;;;0.40;98.00;;;;;;5031049;28;20048;-72
2020/12/25 03:21:26;;;;;;;2.42;1.63;;;0.40;98.00;;;;;;5029869;28;20040;-71
2020/12/25 03:23:52;;;;;;;2.55;1.60;;;0.40;98.00;;;;;;5030463;28;20104;-71
2020/12/25 03:26:18;;;;;;;3.35;1.52;;;0.40;98.00;;;;;;5027032;28;20021;-71
2020/12/25 03:28:44;;;;;;;3.70;1.48;;;0.40;98.00;;;;;;5032034;28;20022;-71
2020/12/25 03:31:12;;;;;;;2.97;1.60;;;0.40;98.00;;;;;;5031346;28;20040;-71
2020/12/25 03:33:37;;;;;;;2.50;1.60;;;0.40;98.00;;;;;;5034669;28;20420;-70
2020/12/25 03:36:03;;;;;;;3.05;1.67;;;0.50;98.00;;;;;;5033765;28;20105;-71
2020/12/25 03:38:29;;;;;;;2.45;1.60;;;0.50;98.00;;;;;;5034077;28;20037;-69
2020/12/25 03:40:54;;;;;;;2.33;1.65;;;0.40;98.00;;;;;;5043918;28;20433;-71
2020/12/25 03:43:20;;;;;;;2.95;1.70;;;0.40;98.00;;;;;;5035503;28;20028;-70
2020/12/25 03:45:46;;;;;;;2.63;1.65;;;0.50;98.00;;;;;;5040712;28;20030;-70
2020/12/25 03:48:14;;;;;;;3.22;1.75;;;0.50;98.00;;;;;;5025885;28;20360;-70
2020/12/25 03:50:40;;;;;;;2.78;1.75;;;0.40;98.00;;;;;;5032239;28;20337;-70
2020/12/25 03:53:05;;;;;;;2.53;1.55;;;0.40;98.00;;;;;;5033924;28;20033;-71
2020/12/25 03:55:31;;;;;;;2.75;1.75;;;0.40;98.00;;;;;;5032363;28;20324;-71
2020/12/25 03:57:57;;;;;;;3.50;1.90;;;0.40;98.00;;;;;;5033495;28;20021;-70
2020/12/25 04:00:22;;;;;;;2.75;1.70;;;0.40;98.00;;;;;;5035715;28;20763;-70
2020/12/25 04:02:48;;;;;;;3.22;1.70;;;0.50;98.00;;;;;;5034709;28;20136;-71
2020/12/25 04:05:17;;;;;;;2.10;1.42;;;0.50;98.00;;;;;;5033907;28;20025;-71
2020/12/25 04:07:42;;;;;;;2.97;1.73;;;0.50;98.00;;;;;;5034483;28;20104;-71
2020/12/25 04:10:08;;;;;;;3.35;1.90;;;0.50;98.00;;;;;;5032414;28;20436;-71
2020/12/25 04:12:36;;;;;;;2.85;1.65;;;0.50;98.00;;;;;;5033629;28;20082;-71
2020/12/25 04:15:03;;;;;;;4.00;2.03;;;0.50;98.00;;;;;;5032996;28;20022;-71
2020/12/25 04:17:28;;;;;;;3.13;1.75;;;0.50;98.00;;;;;;5036228;28;20045;-70
2020/12/25 04:19:54;;;;;;;4.03;1.70;;;0.50;98.00;;;;;;5037604;28;20418;-71
2020/12/25 04:22:19;;;;;;;2.45;1.60;;;0.50;98.00;;;;;;5033647;28;20037;-70
2020/12/25 04:24:45;;;;;;;2.65;1.55;;;0.50;98.00;;;;;;5032864;28;20022;-71
2020/12/25 04:27:11;;;;;;;2.15;1.42;;;0.50;98.00;;;;;;5033683;28;20024;-71
2020/12/25 04:29:36;;;;;;;3.85;2.15;;;0.50;98.00;;;;;;5032902;28;20113;-71
2020/12/25 04:32:03;;;;;;;3.65;1.90;;;0.50;98.00;;;;;;5032305;28;20032;-70
2020/12/25 04:34:28;;;;;;;2.22;1.33;;;0.50;98.00;;;;;;5038297;28;20053;-70
2020/12/25 04:36:57;;;;;;;2.80;1.77;;;0.50;98.00;;;;;;5038216;28;20500;-70
2020/12/25 04:39:22;;;;;;;2.28;1.48;;;0.50;98.00;;;;;;5041923;28;20030;-71
2020/12/25 04:41:48;;;;;;;2.25;1.50;;;0.40;98.00;;;;;;5035700;28;20033;-71
2020/12/25 04:44:15;;;;;;;2.88;1.67;;;0.40;98.00;;;;;;5038240;28;20105;-71
2020/12/25 04:46:40;;;;;;;2.65;1.70;;;0.40;98.00;;;;;;5038179;28;20028;-70
2020/12/25 04:49:09;;;;;;;2.45;1.60;;;0.40;98.00;;;;;;5037575;28;20021;-71
2020/12/25 04:51:35;;;;;;;2.53;1.60;;;0.40;98.00;;;;;;5045580;28;20057;-70
2020/12/25 04:54:01;;;;;;;7.07;1.98;;;0.40;98.00;;;;;;5046890;28;20354;-69
2020/12/25 04:56:27;;;;;;;3.65;2.13;;;0.40;98.00;;;;;;5037856;28;20029;-70
2020/12/25 04:58:53;;;;;;;3.05;1.92;;;0.30;98.00;;;;;;5039523;28;20087;-70
2020/12/25 05:01:19;;;;;;;3.17;1.90;;;0.30;98.00;;;;;;5037319;28;20410;-70
2020/12/25 05:03:45;;;;;;;4.00;2.03;;;0.30;98.00;;;;;;5036660;28;20083;-69
2020/12/25 05:06:15;;;;;;;4.03;2.10;;;0.30;98.00;;;;;;5037253;28;20026;-70
2020/12/25 05:08:44;;;;;;;3.17;1.90;;;0.30;98.00;;;;;;5038062;28;20018;-70
2020/12/25 05:11:14;;;;;;;2.90;1.70;;;0.40;98.00;;;;;;5036756;28;20326;-70
2020/12/25 05:13:44;;;;;;;2.97;1.73;;;0.40;98.00;;;;;;5023407;28;20036;-71
2020/12/25 05:16:11;;;;;;;3.25;2.00;;;0.30;98.00;;;;;;5037654;28;20025;-69
2020/12/25 05:18:41;;;;;;;3.83;2.08;;;0.30;98.00;;;;;;5036420;28;20124;-70
2020/12/25 05:21:09;;;;;;;3.05;2.10;;;0.40;98.00;;;;;;5037104;28;20025;-70
2020/12/25 05:23:43;;;;;;;2.72;1.65;;;0.30;98.00;;;;;;5038126;28;20017;-69
2020/12/25 05:26:13;;;;;;;3.92;2.70;;;0.30;98.00;;;;;;5037372;28;20457;-70
2020/12/25 05:28:47;;;;;;;4.95;2.78;;;0.30;98.00;;;;;;5035765;28;20083;-70
2020/12/25 05:31:14;;;;;;;;;;;0.30;98.00;;;;;;5036560;28;20026;-70
2020/12/25 05:33:40;;;;;;;3.83;2.17;;;0.30;98.00;;;;;;5036905;28;19910;-70
2020/12/25 05:36:07;;;;;;;4.63;2.83;;;0.30;98.00;;;;;;5036155;28;20028;-70
2020/12/25 05:38:34;;;;;;;4.43;2.83;;;0.30;98.00;;;;;;5037501;28;20029;-71
2020/12/25 05:41:01;;;;;;;4.25;2.90;;;0.30;98.00;;;;;;5035978;28;20032;-70
2020/12/25 05:43:27;;;;;;;3.72;2.40;;;0.30;98.00;;;;;;5035427;28;20364;-71
2020/12/25 05:45:53;;;;;;;4.68;3.28;;;0.30;98.00;;;;;;5036540;28;20430;-70
2020/12/25 05:48:18;;;;;;;4.80;3.20;;;0.30;98.00;;;;;;5036311;28;20159;-70
2020/12/25 05:50:44;;;;;;;4.47;2.95;;;0.30;98.00;;;;;;5035448;28;20442;-69
2020/12/25 05:53:11;;;;;;;4.28;2.88;;;0.30;98.00;;;;;;5037272;28;20045;-72
2020/12/25 05:55:37;;;;;;;5.78;3.95;;;0.30;98.00;;;;;;5035961;28;20041;-70
2020/12/25 05:58:05;;;;;;;4.32;3.10;;;0.30;98.00;;;;;;5036785;28;20052;-69
2020/12/25 06:00:34;;;;;;;5.35;3.90;;;0.30;98.00;;;;;;5035624;28;20083;-70
2020/12/25 06:03:02;;;;;;;4.80;3.38;;;0.30;98.00;;;;;;5035714;28;20033;-70
2020/12/25 06:05:28;;;;;;;6.00;3.90;;;0.30;98.00;;;;;;5036122;28;20026;-70
2020/12/25 06:08:02;;;;;;;7.25;4.30;;;0.30;98.00;;;;;;5038808;28;20029;-70
2020/12/25 06:10:29;;;;;;;7.35;4.20;;;0.30;98.00;;;;;;5035147;28;20044;-70
2020/12/25 06:12:58;;;;;;;4.93;3.30;;;0.30;98.00;;;;;;5036636;28;20468;-70
2020/12/25 06:15:25;;;;;;;4.38;3.03;;;0.30;98.00;;;;;;5036666;28;20026;-70
2020/12/25 06:18:07;;;;;;;7.55;4.47;;;0.30;98.00;;;;;;5036973;28;20021;-69
2020/12/25 06:20:38;;;;;;;5.35;3.72;;;0.30;98.00;;;;;;5036345;28;20043;-69
2020/12/25 06:23:04;;;;;;;6.60;4.00;;;0.40;98.00;;;;;;5036798;28;20021;-70
2020/12/25 06:25:30;;;;;;;7.63;4.95;;;0.30;98.00;;;;;;5035820;28;20021;-69
2020/12/25 06:28:01;;;;;;;5.60;4.07;;;0.30;98.00;;;;;;5035195;28;20413;-69
2020/12/25 06:30:32;;;;;;;5.28;3.95;;;0.30;98.00;;;;;;5035905;28;20041;-69
2020/12/25 06:32:58;;;;;;;6.55;4.57;;;0.30;98.00;;;;;;5035934;28;20032;-69
2020/12/25 06:35:31;;;;;;;9.82;4.85;;;0.30;98.00;;;;;;5036324;28;20092;-70
2020/12/25 06:37:57;;;;;;;7.10;4.43;;;0.30;98.00;;;;;;5038438;28;20032;-69
2020/12/25 06:40:26;;;;;;;6.00;4.30;;;0.30;98.00;;;;;;5036641;28;20075;-70
2020/12/25 06:42:55;;;;;;;6.35;3.92;;;0.30;98.00;;;;;;5036414;28;20147;-69
2020/12/25 06:45:30;;;;;;;5.32;3.83;;;0.30;98.00;;;;;;5035544;28;20046;-69
2020/12/25 06:48:15;;;;;;;5.30;3.80;;;0.30;98.00;;;;;;5037062;28;20030;-68
2020/12/25 06:51:00;;;;;;;5.57;4.00;;;0.30;98.00;;;;;;5036153;28;20045;-69
2020/12/25 06:53:42;;;;;;;6.00;4.20;;;0.30;98.00;;;;;;5032951;28;20449;-69
2020/12/25 06:56:18;;;;;;;7.10;4.72;;;0.30;98.00;;;;;;5034323;28;20025;-70
2020/12/25 06:58:46;;;;;;;8.63;5.70;;;0.30;98.00;;;;;;5034105;28;20027;-69
2020/12/25 07:01:33;;;;;;;10.95;6.10;;;0.20;98.00;;;;;;5035448;28;20127;-69
2020/12/25 07:03:59;;;;;;;7.47;5.28;;;0.30;98.00;;;;;;5035165;28;20315;-70
2020/12/25 07:06:32;;;;;;;7.10;5.30;;;0.20;98.00;;;;;;5034814;28;20068;-70
2020/12/25 07:09:11;;;;;;;6.68;4.78;;;0.30;98.00;;;;;;5035386;28;20030;-69
2020/12/25 07:11:37;;;;;;;14.13;7.68;;;0.20;98.00;;;;;;5031355;28;20037;-71
2020/12/25 07:14:04;;;;;;;11.02;6.43;;;0.20;98.00;;;;;;5035540;28;20025;-69
2020/12/25 07:16:35;;;;;;;9.20;6.43;;;0.20;98.00;;;;;;5035407;28;20145;-68
2020/12/25 07:19:01;;;;;;;9.48;7.43;;;0.20;98.00;;;;;;5035784;28;20022;-69
2020/12/25 07:21:28;;;;;;;14.48;8.63;;;0.20;98.00;;;;;;5035223;28;20590;-68
2020/12/25 07:23:57;;;;;;;13.02;8.43;;;0.20;98.00;;;;;;5035650;28;20029;-68
2020/12/25 07:26:23;;;;;;;15.25;7.38;;;0.20;98.00;;;;;;5034067;28;20025;-70
2020/12/25 07:28:50;;;;;;;14.77;7.15;;;0.20;98.00;;;;;;5034274;28;20315;-69
2020/12/25 07:31:15;;;;;;;13.07;8.23;;;0.20;98.00;;;;;;5036273;28;20025;-69
2020/12/25 07:33:55;;;;;;;8.80;6.60;;;0.30;98.00;;;;;;5040037;28;20386;-68
2020/12/25 07:36:21;;;;;;;11.68;7.85;;;0.30;98.00;;;;;;5038568;28;20029;-69
2020/12/25 07:38:48;;;;;;;10.40;7.63;;;0.30;98.00;;;;;;5034660;28;20075;-69
2020/12/25 07:41:13;;;;;;;12.65;8.75;;;0.20;98.00;;;;;;5042969;28;20489;-68
2020/12/25 07:43:39;;;;;;;9.45;7.30;;;0.20;98.00;;;;;;5037579;28;20104;-69
2020/12/25 07:46:11;;;;;;;11.82;7.45;;;0.30;98.00;;;;;;5041889;28;20356;-70
2020/12/25 07:48:37;;;;;;;14.13;7.78;;;0.30;98.00;;;;;;5040384;28;20067;-69
2020/12/25 07:51:04;;;;;;;10.82;7.45;;;0.30;98.00;;;;;;5035627;28;20041;-70
2020/12/25 07:53:30;;;;;;;22.58;14.48;;;0.20;98.00;;;;;;5035131;28;20029;-70
2020/12/25 07:56:04;;;;;;;17.08;12.77;;;0.20;98.00;;;;;;5033493;28;20044;-69
2020/12/25 07:58:30;;;;;;;12.43;8.30;;;0.20;98.00;;;;;;5039472;28;20033;-69
2020/12/25 08:00:56;;;;;;;8.95;7.25;;;0.20;98.00;;;;;;5040919;28;20040;-69
2020/12/25 08:03:22;;;;;;;11.18;7.53;;;0.20;98.00;;;;;;5036288;28;20398;-69
2020/12/25 08:05:48;;;;;;;10.80;8.35;;;0.30;98.00;;;;;;5039680;28;20067;-70
2020/12/25 08:08:14;;;;;;;11.07;7.65;;;0.20;98.00;;;;;;5033536;28;20414;-67
2020/12/25 08:10:41;;;;;;;12.43;9.15;;;0.20;98.00;;;;;;5032953;28;20035;-67
2020/12/25 08:13:17;;;;;;;17.50;11.07;;;0.20;98.00;;;;;;5034851;28;20378;-67
2020/12/25 08:15:43;;;;;;;10.38;7.40;;;0.20;98.00;;;;;;5034830;28;20293;-67
2020/12/25 08:18:13;;;;;;;10.95;8.68;;;0.30;98.00;;;;;;5038331;28;20029;-69
2020/12/25 08:20:39;;;;;;;8.23;6.07;;;0.30;98.00;;;;;;5034919;28;20428;-69
2020/12/25 08:23:04;;;;;;;17.50;9.95;;;0.30;98.00;;;;;;5035436;28;20049;-69
2020/12/25 08:25:31;;;;;;;14.00;11.30;;;0.30;98.00;;;;;;5033075;28;20430;-69
2020/12/25 08:27:57;;;;;;;16.85;11.40;;;0.20;98.00;;;;;;5033042;28;20026;-69
2020/12/25 08:30:24;;;;;;;15.07;10.85;;;0.30;98.00;;;;;;5033630;28;20034;-69
2020/12/25 08:33:05;;;;;;;9.38;6.47;;;0.30;98.00;;;;;;5033889;28;20033;-69
2020/12/25 08:35:31;;;;;;;7.35;5.40;;;0.30;98.00;;;;;;5037983;28;20315;-68
2020/12/25 08:37:58;;;;;;;12.27;7.63;;;0.30;98.00;;;;;;5034027;28;20136;-68
2020/12/25 08:40:29;;;;;;;14.73;8.23;;;0.30;98.00;;;;;;5039340;28;20373;-68
2020/12/25 08:43:04;;;;;;;10.20;7.20;;;0.30;98.00;;;;;;5034715;28;20112;-69
2020/12/25 08:45:29;;;;;;;14.98;9.93;;;0.30;98.00;;;;;;5041534;28;20022;-69
2020/12/25 08:48:12;;;;;;;17.73;11.57;;;0.30;98.00;;;;;;5034961;28;20028;-69
2020/12/25 08:50:40;;;;;;;20.55;14.27;;;0.30;98.00;;;;;;5047512;28;20351;-69
2020/12/25 08:53:16;;;;;;;14.95;9.68;;;0.30;98.00;;;;;;5035163;28;20024;-69
2020/12/25 08:55:48;;;;;;;13.25;9.80;;;0.30;98.00;;;;;;5033082;28;20021;-69
2020/12/25 08:58:23;;;;;;;16.13;12.63;;;0.30;98.00;;;;;;5036646;28;20045;-69
2020/12/25 09:00:59;;;;;;;13.10;10.82;;;0.30;98.00;;;;;;5034586;28;20333;-69
2020/12/25 09:03:45;;;;;;;10.68;8.18;;;0.30;98.00;;;;;;5033997;28;20322;-69
2020/12/25 09:06:11;;;;;;;10.60;7.85;;;0.30;98.00;;;;;;5026931;28;20037;-68
2020/12/25 09:08:37;;;;;;;11.93;8.75;;;0.30;98.00;;;;;;5033278;28;20163;-69
2020/12/25 09:11:17;;;;;;;13.13;9.98;;;0.30;98.00;;;;;;5036270;28;20052;-69
2020/12/25 09:13:43;;;;;;;12.40;9.93;;;0.30;98.00;;;;;;5036899;28;20021;-69
2020/12/25 09:16:10;;;;;;;12.60;9.38;;;0.30;98.00;;;;;;5033201;28;20033;-69
2020/12/25 09:18:36;;;;;;;12.07;8.43;;;0.30;98.00;;;;;;5042231;28;20030;-70
2020/12/25 09:21:03;;;;;;;16.27;10.43;;;0.30;98.00;;;;;;5037059;28;20033;-69
2020/12/25 09:23:30;;;;;;;15.40;10.13;;;0.30;98.00;;;;;;5038477;28;20040;-69
2020/12/25 09:25:56;;;;;;;13.50;8.52;;;0.40;98.00;;;;;;5035326;28;20108;-69
2020/12/25 09:28:24;;;;;;;11.77;8.25;;;0.40;98.00;;;;;;5036609;28;20028;-68
2020/12/25 09:30:53;;;;;;;16.42;10.70;;;0.50;98.00;;;;;;5036356;28;20029;-70
2020/12/25 09:33:20;;;;;;;13.98;9.30;;;0.50;98.00;;;;;;5037484;28;20036;-69
2020/12/25 09:35:46;;;;;;;19.83;11.30;;;0.60;98.00;;;;;;5038146;28;20052;-70
2020/12/25 09:38:15;;;;;;;14.45;9.75;;;0.60;98.00;;;;;;5036928;28;20105;-69
2020/12/25 09:40:41;;;;;;;15.98;10.20;;;0.60;98.00;;;;;;5036410;28;20037;-69
2020/12/25 09:43:07;;;;;;;15.15;10.63;;;0.60;98.00;;;;;;5035306;28;20033;-70
2020/12/25 09:45:33;;;;;;;13.80;9.75;;;0.60;98.00;;;;;;5035816;28;20075;-68
2020/12/25 09:47:59;;;;;;;17.38;12.43;;;0.60;98.00;;;;;;5037018;28;20021;-67
2020/12/25 09:50:25;;;;;;;15.10;10.48;;;0.60;98.00;;;;;;5048644;28;20424;-69
2020/12/25 09:52:50;;;;;;;19.88;12.93;;;0.50;98.00;;;;;;5046653;28;20087;-70
2020/12/25 09:55:19;;;;;;;13.10;9.27;;;0.50;98.00;;;;;;5036131;28;20041;-69
2020/12/25 09:57:44;;;;;;;16.00;11.30;;;0.50;98.00;;;;;;5037506;28;20330;-69
2020/12/25 10:00:14;;;;;;;22.73;9.60;;;0.50;98.00;;;;;;5037387;28;20037;-69
2020/12/25 10:02:41;;;;;;;31.55;11.13;;;0.50;98.00;;;;;;5034879;28;20029;-69
2020/12/25 10:05:09;;;;;;;23.17;10.38;;;0.50;98.00;;;;;;5035212;28;20033;-69
2020/12/25 10:07:35;;;;;;;45.22;13.75;;;0.50;98.00;;;;;;5036543;28;20021;-69
2020/12/25 10:10:02;;;;;;;66.13;13.85;;;0.50;98.00;;;;;;5034662;28;20037;-69
2020/12/25 10:12:27;;;;;;;89.88;14.75;;;0.50;98.00;;;;;;5042404;28;20367;-68
2020/12/25 10:14:53;;;;;;;190.40;16.08;;;0.50;98.00;;;;;;5041349;28;20025;-68
2020/12/25 10:17:19;;;;;;;105.80;14.63;;;0.40;98.00;;;;;;5037148;28;20083;-69
2020/12/25 10:19:45;;;;;;;153.10;16.80;;;0.40;98.00;;;;;;5036542;28;20426;-69
2020/12/25 10:22:11;;;;;;;85.65;17.65;;;0.40;98.00;;;;;;5036375;28;20116;-68
2020/12/25 10:24:37;;;;;;;206.82;15.48;;;0.30;98.00;;;;;;5035325;28;20029;-68
2020/12/25 10:27:03;;;;;;;183.98;18.85;;;0.30;98.00;;;;;;5044541;28;20310;-69
2020/12/25 10:29:29;;;;;;;51.55;13.90;;;0.30;98.00;;;;;;5040371;28;20025;-69
2020/12/25 10:31:58;;;;;;;106.32;15.32;;;0.40;98.00;;;;;;5035487;28;20025;-68
2020/12/25 10:34:24;;;;;;;107.60;19.67;;;0.40;98.00;;;;;;5039137;28;20033;-69
2020/12/25 10:36:52;;;;;;;94.50;13.77;;;0.40;98.00;;;;;;5035924;28;20029;-68
2020/12/25 10:39:18;;;;;;;59.45;13.95;;;0.30;98.00;;;;;;5034682;28;20034;-68
2020/12/25 10:41:44;;;;;;;103.13;15.27;;;0.30;98.00;;;;;;5035224;28;20139;-68
2020/12/25 10:44:09;;;;;;;89.13;16.90;;;0.30;98.00;;;;;;5035862;28;20026;-68
2020/12/25 10:46:38;;;;;;;68.38;18.90;;;0.30;98.00;;;;;;5028415;28;20044;-68
2020/12/25 10:49:04;;;;;;;23.30;16.33;;;0.50;98.00;;;;;;5034694;28;20021;-69
2020/12/25 10:51:29;;;;;;;97.65;48.63;;;0.70;98.00;;;;;;5033288;28;20107;-69
2020/12/25 10:53:55;;;;;;;76.05;48.35;;;0.80;98.00;;;;;;5025292;28;20636;-69
2020/12/25 10:56:24;;;;;;;27.55;18.23;;;0.80;98.00;;;;;;5033027;28;20658;-68
2020/12/25 10:58:51;;;;;;;60.33;22.40;;;0.70;98.00;;;;;;5033257;28;20049;-68
2020/12/25 11:01:21;;;;;;;28.48;17.63;;;0.80;98.00;;;;;;5032469;28;20026;-69
2020/12/25 11:03:50;;;;;;;41.78;15.75;;;0.80;98.00;;;;;;5035005;28;20083;-68
2020/12/25 11:06:17;;;;;;;24.17;16.15;;;0.80;98.00;;;;;;5034940;28;20026;-68
2020/12/25 11:08:46;;;;;;;33.80;16.67;;;0.70;98.00;;;;;;5035952;28;20067;-68
2020/12/25 11:11:24;;;;;;;20.88;14.43;;;0.70;98.00;;;;;;5044499;28;20082;-68
2020/12/25 11:13:50;;;;;;;24.60;17.23;;;0.80;98.00;;;;;;5037062;28;20065;-70
2020/12/25 11:16:25;;;;;;;21.55;15.23;;;0.90;98.00;;;;;;5036010;28;20111;-69
2020/12/25 11:18:52;;;;;;;23.83;15.65;;;0.90;98.00;;;;;;5035615;28;20018;-68
2020/12/25 11:21:26;;;;;;;25.08;17.10;;;1.00;98.00;;;;;;5035226;28;20528;-67
2020/12/25 11:23:53;;;;;;;24.30;15.70;;;1.00;98.00;;;;;;5035595;28;20033;-68
2020/12/25 11:26:28;;;;;;;21.17;14.93;;;1.00;98.00;;;;;;5032222;28;20057;-68
2020/12/25 11:29:02;;;;;;;26.98;16.65;;;1.00;98.00;;;;;;5035571;28;20433;-69
2020/12/25 11:31:33;;;;;;;30.63;18.55;;;1.00;98.00;;;;;;5034224;28;20044;-66
2020/12/25 11:33:59;;;;;;;69.53;24.15;;;0.90;98.00;;;;;;5035409;28;20033;-69
2020/12/25 11:36:28;;;;;;;78.78;19.58;;;0.80;98.00;;;;;;5035330;28;20437;-68
2020/12/25 11:38:54;;;;;;;82.20;18.23;;;0.80;98.00;;;;;;5042173;28;20029;-68
2020/12/25 11:41:22;;;;;;;145.52;18.40;;;0.80;98.00;;;;;;5035808;28;20029;-68
2020/12/25 11:43:48;;;;;;;65.43;19.70;;;0.80;98.00;;;;;;5034787;28;20079;-68
2020/12/25 11:46:17;;;;;;;215.65;24.60;;;0.70;98.00;;;;;;5035005;28;20029;-69
2020/12/25 11:48:43;;;;;;;201.90;22.60;;;0.70;98.00;;;;;;5034408;28;20024;-68
2020/12/25 11:51:19;;;;;;;181.82;21.83;;;0.70;98.00;;;;;;5033575;28;20053;-69
2020/12/25 11:53:46;;;;;;;64.18;24.05;;;0.80;98.00;;;;;;5035508;28;20577;-69
2020/12/25 11:56:12;;;;;;;47.60;23.27;;;0.80;98.00;;;;;;5033183;28;20026;-69
2020/12/25 11:58:37;;;;;;;31.27;20.55;;;0.80;98.00;;;;;;5034980;28;20026;-69
2020/12/25 12:01:03;;;;;;;35.05;22.00;;;0.80;98.00;;;;;;5034497;28;20029;-68
2020/12/25 12:03:29;;;;;;;23.98;15.98;;;0.90;98.00;;;;;;5034838;28;20025;-69
2020/12/25 12:05:54;;;;;;;19.58;14.60;;;1.00;98.00;;;;;;5034590;28;20029;-68
2020/12/25 12:08:20;;;;;;;29.63;18.08;;;1.00;98.00;;;;;;5035566;28;20028;-69
2020/12/25 12:10:46;;;;;;;21.70;15.70;;;1.00;98.00;;;;;;5049738;28;20034;-68
2020/12/25 12:13:11;;;;;;;27.63;16.95;;;1.00;98.00;;;;;;5033318;28;20045;-68
2020/12/25 12:15:38;;;;;;;26.85;17.23;;;1.00;98.00;;;;;;5035106;28;20100;-68
2020/12/25 12:18:05;;;;;;;29.90;18.08;;;1.00;98.00;;;;;;5032139;28;20026;-68
2020/12/25 12:20:31;;;;;;;29.65;19.80;;;1.00;98.00;;;;;;5038276;28;20049;-69
2020/12/25 12:22:57;;;;;;;32.40;20.30;;;0.90;98.00;;;;;;5033295;28;20418;-68
2020/12/25 12:25:22;;;;;;;30.23;18.75;;;0.90;98.00;;;;;;5033368;28;20047;-68
2020/12/25 12:27:48;;;;;;;27.40;17.77;;;0.80;98.00;;;;;;5029021;28;20049;-69
2020/12/25 12:30:14;;;;;;;29.50;17.55;;;0.80;98.00;;;;;;5033380;28;20049;-67
2020/12/25 12:32:40;;;;;;;32.40;18.33;;;0.80;98.00;;;;;;5034284;28;20026;-68
2020/12/25 12:35:05;;;;;;;32.58;19.35;;;0.70;98.00;;;;;;5033966;28;20326;-69
2020/12/25 12:37:31;;;;;;;24.88;16.58;;;0.80;98.00;;;;;;5033725;28;20052;-68
2020/12/25 12:39:57;;;;;;;23.80;17.25;;;0.80;98.00;;;;;;5034473;28;20121;-69
2020/12/25 12:42:27;;;;;;;25.42;16.92;;;0.80;98.00;;;;;;5032704;28;20033;-67
2020/12/25 12:44:52;;;;;;;29.48;19.67;;;0.90;98.00;;;;;;5034375;28;20049;-68
2020/12/25 12:47:18;;;;;;;23.67;16.55;;;0.90;98.00;;;;;;5034662;28;20444;-69
2020/12/25 12:49:51;;;;;;;31.33;19.95;;;0.80;98.00;;;;;;5035691;28;20029;-69
2020/12/25 12:52:17;;;;;;;25.65;16.85;;;0.80;98.00;;;;;;5032556;28;20030;-69